Terminal Aerodrome Forecast
Issued by NWS Wilmington, OH

Home | Current Version | Previous Version | Text Only | Print | Product List | Glossary On
Versions: 1 2 3 4 5 6 7 8 9 10 11 12 13 14
000
FTUS41 KILN 192300
TAFILN
TAF
KILN 192334Z 2000/2024 05005KT P6SM BKN250
     FM200500 VRB03KT P6SM FEW250
     FM201500 14006KT P6SM BKN250
     FM202000 16006KT P6SM SCT040 BKN250=

USA.gov is the U.S. government's official web portal to all federal, state and local government web resources and services.